Bovril, Argentina
Current Conditions -  °F | °C
As of 8:00 PM on Friday 24 Oct 2014 (Local Time) from SUSO Reporting Station
Clear Clear  
Wind Chill: 77°   Ceiling: Unl
Heat Index: 79°   Visibility: 6mi
Dew Point: 63°   Wind: 7mph
Humidity: 61%   Direction: 160°SSE
Pressure: 29.88"   Gusts: NA
Location:  31.35°S, 59.43°W
Report Text: SUSO 242300Z 16006KT CAVOK 25/17 Q1012
Loading
Personal Weather Stations






























Interactive Weather Map New forecast layout! Learn more

10-Day Weather Forecast

Advertisements
Track Severe Weather on mobile